Time;durP1;ratioP1;P1;durP2;ratioP2;P2;SDS_P1;SDS_P2;PMS_P1;PMS_P2;Temp;Humidity;BMP_temperature;BMP_pressure;BME280_temperature;BME280_humidity;BME280_pressure;Samples;Min_cycle;Max_cycle;Signal;HPM_P1;HPM_P2
2023/03/26 00:01:25;;;;;;;10.85;2.38;;;10.20;99.90;;;;;;5054160;28;20029;-67
2023/03/26 00:03:56;;;;;;;5.30;1.40;;;10.20;99.90;;;;;;5054539;28;20028;-67
2023/03/26 00:06:28;;;;;;;8.35;1.67;;;10.30;99.90;;;;;;5065106;28;20094;-69
2023/03/26 00:08:56;;;;;;;7.13;1.52;;;10.20;99.90;;;;;;5063657;28;20025;-68
2023/03/26 00:11:24;;;;;;;7.63;1.65;;;10.20;99.90;;;;;;5054272;28;20109;-67
2023/03/26 00:13:52;;;;;;;12.20;1.65;;;10.30;99.90;;;;;;5036008;28;20105;-68
2023/03/26 00:16:18;;;;;;;3.72;1.13;;;10.30;99.90;;;;;;5054258;28;20081;-68
2023/03/26 00:18:44;;;;;;;6.03;1.58;;;10.30;99.90;;;;;;5036378;28;20112;-69
2023/03/26 00:21:19;;;;;;;10.50;2.35;;;10.30;99.90;;;;;;5053910;28;20063;-68
2023/03/26 00:23:47;;;;;;;7.32;1.67;;;10.20;99.90;;;;;;5054823;28;20556;-69
2023/03/26 00:26:14;;;;;;;9.35;2.83;;;10.20;99.90;;;;;;5053204;28;20087;-68
2023/03/26 00:28:40;;;;;;;;;;;10.10;99.90;;;;;;5036052;28;20020;-68
2023/03/26 00:31:10;;;;;;;7.13;1.77;;;10.00;99.90;;;;;;5053380;28;19905;-67
2023/03/26 00:33:39;;;;;;;7.78;1.63;;;10.10;99.90;;;;;;5053771;28;20021;-68
2023/03/26 00:36:09;;;;;;;6.07;1.35;;;10.20;99.90;;;;;;5053964;28;20021;-67
2023/03/26 00:38:37;;;;;;;10.82;1.83;;;10.10;99.90;;;;;;5053925;28;20477;-68
2023/03/26 00:41:05;;;;;;;7.60;1.60;;;10.30;99.90;;;;;;5053953;28;20025;-68
2023/03/26 00:43:33;;;;;;;7.97;1.88;;;10.20;99.90;;;;;;5053109;28;20395;-68
2023/03/26 00:45:59;;;;;;;8.77;1.90;;;10.10;99.90;;;;;;5054010;28;20117;-67
2023/03/26 00:48:28;;;;;;;7.97;1.70;;;10.20;99.90;;;;;;5035972;28;20028;-67
2023/03/26 00:50:55;;;;;;;4.60;1.45;;;10.30;99.90;;;;;;5054281;28;20048;-68
2023/03/26 00:53:21;;;;;;;5.68;1.48;;;10.30;99.90;;;;;;5053729;28;20024;-66
2023/03/26 00:55:47;;;;;;;6.70;1.27;;;10.30;99.90;;;;;;5054655;28;20020;-67
2023/03/26 00:58:14;;;;;;;5.35;1.38;;;10.30;99.90;;;;;;5053771;28;20039;-66
2023/03/26 01:00:45;;;;;;;;;;;10.30;99.90;;;;;;5054521;28;20100;-68
2023/03/26 01:03:14;;;;;;;8.50;1.42;;;10.30;99.90;;;;;;5053204;28;19905;-66
2023/03/26 01:05:44;;;;;;;5.28;1.42;;;10.20;99.90;;;;;;5054196;28;20033;-67
2023/03/26 01:08:30;;;;;;;7.00;1.48;;;10.20;99.90;;;;;;5035226;28;20025;-67
2023/03/26 01:11:05;;;;;;;6.22;1.38;;;10.30;99.90;;;;;;5054451;28;20036;-66
2023/03/26 01:13:36;;;;;;;5.32;1.55;;;10.30;99.90;;;;;;5054403;28;20389;-68
2023/03/26 01:16:06;;;;;;;8.27;2.17;;;10.20;99.90;;;;;;5053878;28;20022;-68
2023/03/26 01:18:39;;;;;;;5.32;1.60;;;10.30;99.90;;;;;;5053780;28;20094;-68
2023/03/26 01:21:08;;;;;;;5.35;1.58;;;10.20;99.90;;;;;;5053723;28;20036;-67
2023/03/26 01:24:00;;;;;;;6.45;1.60;;;10.20;99.90;;;;;;5055103;28;20021;-67
2023/03/26 01:26:52;;;;;;;7.20;1.70;;;10.30;99.90;;;;;;5050963;28;20537;-68
2023/03/26 01:29:45;;;;;;;5.00;1.33;;;10.30;99.90;;;;;;5037172;28;20021;-67
2023/03/26 01:32:11;;;;;;;8.02;2.40;;;10.20;99.90;;;;;;5034168;28;20025;-68
2023/03/26 01:34:58;;;;;;;8.17;2.00;;;10.20;99.90;;;;;;5074732;28;20035;-68
2023/03/26 01:37:29;;;;;;;;;;;10.30;99.90;;;;;;5077597;28;20012;-68
2023/03/26 01:40:04;;;;;;;7.35;1.75;;;10.20;99.90;;;;;;5064636;28;19912;-68
2023/03/26 01:42:35;;;;;;;5.43;1.58;;;10.20;99.90;;;;;;5082646;28;20551;-68
2023/03/26 01:45:10;;;;;;;5.47;1.17;;;10.30;99.90;;;;;;5082317;28;20111;-68
2023/03/26 01:47:38;;;;;;;5.35;1.40;;;10.20;99.90;;;;;;5078405;28;20027;-67
2023/03/26 01:50:04;;;;;;;5.82;1.40;;;10.10;99.90;;;;;;5077391;28;20507;-67
2023/03/26 01:52:30;;;;;;;6.50;1.42;;;10.10;99.90;;;;;;5077280;28;20081;-67
2023/03/26 01:54:56;;;;;;;9.07;1.75;;;10.10;99.90;;;;;;5077224;28;20029;-67
2023/03/26 01:57:55;;;;;;;6.10;1.20;;;10.20;99.90;;;;;;5077136;28;20498;-68
2023/03/26 02:00:28;;;;;;;8.02;1.63;;;10.20;99.90;;;;;;5065481;28;20043;-67
2023/03/26 02:03:16;;;;;;;5.97;1.85;;;10.30;99.90;;;;;;5068362;28;20478;-68
2023/03/26 02:05:56;;;;;;;8.23;1.95;;;10.30;99.90;;;;;;5057033;28;20493;-67
2023/03/26 02:08:34;;;;;;;7.30;1.67;;;10.30;99.90;;;;;;5038501;28;20029;-68
2023/03/26 02:11:10;;;;;;;6.38;1.30;;;10.30;99.90;;;;;;5056508;28;20105;-67
2023/03/26 02:13:37;;;;;;;4.85;1.40;;;10.20;99.90;;;;;;5055823;28;20032;-68
2023/03/26 02:16:06;;;;;;;9.25;1.75;;;10.20;99.90;;;;;;5056587;28;20087;-68
2023/03/26 02:18:37;;;;;;;7.97;1.80;;;10.20;99.90;;;;;;5056521;28;20017;-67
2023/03/26 02:21:19;;;;;;;9.40;1.83;;;10.10;99.90;;;;;;5056103;28;20986;-68
2023/03/26 02:23:45;;;;;;;9.70;1.52;;;10.10;99.90;;;;;;5038165;28;20207;-67
2023/03/26 02:26:13;;;;;;;6.22;1.40;;;10.10;99.90;;;;;;5038267;28;20025;-67
2023/03/26 02:28:38;;;;;;;8.40;1.45;;;10.10;99.90;;;;;;5055683;28;20123;-67
2023/03/26 02:31:05;;;;;;;5.63;1.40;;;10.20;99.90;;;;;;5055878;28;20635;-67
2023/03/26 02:33:31;;;;;;;9.77;1.58;;;10.10;99.90;;;;;;5055859;28;20044;-68
2023/03/26 02:36:01;;;;;;;7.78;1.27;;;10.10;99.90;;;;;;5055812;28;20028;-67
2023/03/26 02:38:28;;;;;;;5.45;1.48;;;10.10;99.90;;;;;;5056271;28;20075;-68
2023/03/26 02:40:54;;;;;;;5.70;1.20;;;10.00;99.90;;;;;;5055986;28;20021;-68
2023/03/26 02:43:21;;;;;;;5.15;1.45;;;10.00;99.90;;;;;;5055428;28;20045;-67
2023/03/26 02:45:46;;;;;;;6.00;1.65;;;9.90;99.90;;;;;;5055734;28;20104;-68
2023/03/26 02:48:12;;;;;;;4.80;1.40;;;9.90;99.90;;;;;;5054986;28;20052;-68
2023/03/26 02:50:38;;;;;;;6.72;1.70;;;9.90;99.90;;;;;;5055564;28;20071;-67
2023/03/26 02:53:03;;;;;;;7.78;1.40;;;10.00;99.90;;;;;;5070864;28;20405;-68
2023/03/26 02:55:29;;;;;;;8.53;2.13;;;10.10;99.90;;;;;;5055297;28;20033;-68
2023/03/26 02:57:55;;;;;;;4.40;1.30;;;9.90;99.90;;;;;;5055823;28;20104;-67
2023/03/26 03:00:21;;;;;;;8.50;1.70;;;9.90;99.90;;;;;;5055073;28;20169;-67
2023/03/26 03:02:51;;;;;;;8.50;1.75;;;9.80;99.90;;;;;;5055047;28;20024;-68
2023/03/26 03:05:17;;;;;;;9.00;1.52;;;9.90;99.90;;;;;;5054334;28;20025;-67
2023/03/26 03:07:45;;;;;;;4.53;1.30;;;10.00;99.90;;;;;;5055395;28;20079;-67
2023/03/26 03:10:12;;;;;;;9.07;1.75;;;10.10;99.90;;;;;;5055251;28;20025;-67
2023/03/26 03:12:39;;;;;;;8.48;2.17;;;10.10;99.90;;;;;;5055052;28;20441;-68
2023/03/26 03:15:05;;;;;;;6.28;1.40;;;10.10;99.90;;;;;;5054973;28;20435;-68
2023/03/26 03:17:31;;;;;;;6.40;1.17;;;10.20;99.90;;;;;;5070448;28;20112;-68
2023/03/26 03:19:56;;;;;;;4.50;1.70;;;10.20;99.90;;;;;;5036838;28;20102;-68
2023/03/26 03:22:22;;;;;;;7.17;1.30;;;10.10;99.90;;;;;;5054666;28;20459;-67
2023/03/26 03:24:47;;;;;;;6.20;1.33;;;10.20;99.90;;;;;;5054844;28;20108;-68
2023/03/26 03:27:14;;;;;;;10.10;1.70;;;10.20;99.90;;;;;;5055002;28;20025;-68
2023/03/26 03:29:40;;;;;;;;;;;10.20;99.90;;;;;;5054297;28;20105;-68
2023/03/26 03:32:05;;;;;;;9.98;1.27;;;10.20;99.90;;;;;;5054780;28;19940;-68
2023/03/26 03:34:31;;;;;;;7.10;1.43;;;10.20;99.90;;;;;;5055066;28;20083;-68
2023/03/26 03:36:56;;;;;;;6.93;1.60;;;10.30;99.90;;;;;;5054128;28;20108;-68
2023/03/26 03:39:22;;;;;;;5.43;1.40;;;10.40;99.90;;;;;;5054885;28;20391;-68
2023/03/26 03:41:48;;;;;;;5.30;1.67;;;10.30;99.90;;;;;;5054610;28;20024;-68
2023/03/26 03:44:13;;;;;;;7.68;1.77;;;10.20;99.90;;;;;;5054153;28;20115;-69
2023/03/26 03:46:39;;;;;;;9.93;1.80;;;10.20;99.90;;;;;;5054753;28;20091;-68
2023/03/26 03:49:05;;;;;;;6.85;1.33;;;10.20;99.90;;;;;;5069206;28;20035;-68
2023/03/26 03:51:30;;;;;;;7.37;1.50;;;10.30;99.90;;;;;;5037186;28;20052;-68
2023/03/26 03:53:56;;;;;;;9.43;1.50;;;10.20;99.90;;;;;;5054586;28;20102;-68
2023/03/26 03:56:23;;;;;;;8.63;1.60;;;10.10;99.90;;;;;;5054951;28;20096;-68
2023/03/26 03:58:49;;;;;;;9.55;1.50;;;10.10;99.90;;;;;;5053852;28;20264;-68
2023/03/26 04:01:15;;;;;;;;;;;10.00;99.90;;;;;;5053516;28;20035;-68
2023/03/26 04:03:45;;;;;;;12.60;1.60;;;10.00;99.90;;;;;;5053494;28;20038;-68
2023/03/26 04:06:11;;;;;;;5.07;1.50;;;10.10;99.90;;;;;;5053906;28;20104;-68
2023/03/26 04:08:37;;;;;;;7.07;1.63;;;10.00;99.90;;;;;;5053935;28;20025;-68
2023/03/26 04:11:03;;;;;;;6.78;1.55;;;10.20;99.90;;;;;;5054172;28;20477;-68
2023/03/26 04:13:29;;;;;;;5.03;1.42;;;10.20;99.90;;;;;;5053609;28;20060;-68
2023/03/26 04:15:55;;;;;;;7.30;1.45;;;10.40;99.90;;;;;;5053328;28;20027;-68
2023/03/26 04:18:22;;;;;;;6.55;1.50;;;10.30;99.90;;;;;;5054124;28;20036;-68
2023/03/26 04:20:48;;;;;;;6.68;2.03;;;10.20;99.90;;;;;;5052834;28;20025;-68
2023/03/26 04:23:15;;;;;;;;;;;10.20;99.90;;;;;;5054023;28;20410;-68
2023/03/26 04:25:47;;;;;;;7.47;1.67;;;10.20;99.90;;;;;;5053340;28;20345;-68
2023/03/26 04:28:41;;;;;;;6.57;1.75;;;10.20;99.90;;;;;;5053707;28;20075;-68
2023/03/26 04:31:10;;;;;;;5.38;1.33;;;10.10;99.90;;;;;;5053273;28;20511;-68
2023/03/26 04:33:38;;;;;;;7.13;1.83;;;10.20;99.90;;;;;;5035288;28;20029;-68
2023/03/26 04:36:04;;;;;;;7.90;2.05;;;10.10;99.90;;;;;;5053058;28;20041;-68
2023/03/26 04:38:36;;;;;;;8.15;2.28;;;10.20;99.90;;;;;;5053526;28;20116;-68
2023/03/26 04:41:02;;;;;;;11.05;1.55;;;10.20;99.90;;;;;;5035577;28;20029;-68
2023/03/26 04:43:29;;;;;;;8.90;1.50;;;10.30;99.90;;;;;;5053560;28;20025;-68
2023/03/26 04:45:55;;;;;;;6.47;1.60;;;10.20;99.90;;;;;;5052554;28;20017;-68
2023/03/26 04:48:20;;;;;;;9.77;2.42;;;10.30;99.90;;;;;;5053336;28;20025;-68
2023/03/26 04:50:46;;;;;;;7.03;1.40;;;10.20;99.90;;;;;;5053251;28;20029;-68
2023/03/26 04:53:15;;;;;;;13.02;1.70;;;10.10;99.90;;;;;;5053182;28;20259;-68
2023/03/26 04:55:47;;;;;;;5.07;1.38;;;10.10;99.90;;;;;;5052699;28;20440;-68
2023/03/26 04:58:13;;;;;;;10.30;1.50;;;10.00;99.90;;;;;;5053140;28;20500;-68
2023/03/26 05:00:40;;;;;;;10.63;1.98;;;10.00;99.90;;;;;;5052937;28;20032;-68
2023/03/26 05:03:12;;;;;;;9.73;2.38;;;10.00;99.90;;;;;;5052980;28;20055;-67
2023/03/26 05:05:39;;;;;;;6.40;1.55;;;10.00;99.90;;;;;;5053305;28;20446;-67
2023/03/26 05:08:05;;;;;;;4.95;1.58;;;10.00;99.90;;;;;;5053081;28;20028;-68
2023/03/26 05:10:31;;;;;;;12.45;2.25;;;10.00;99.90;;;;;;5053068;28;20116;-68
2023/03/26 05:12:56;;;;;;;7.47;1.73;;;10.00;99.90;;;;;;5053037;28;20064;-68
2023/03/26 05:15:22;;;;;;;8.77;1.87;;;10.00;99.90;;;;;;5052583;28;20028;-67
2023/03/26 05:17:48;;;;;;;7.77;1.90;;;10.10;99.90;;;;;;5053267;28;20025;-67
2023/03/26 05:20:21;;;;;;;10.50;1.87;;;10.20;99.90;;;;;;5053029;28;20477;-67
2023/03/26 05:22:48;;;;;;;14.77;1.70;;;10.20;99.90;;;;;;5052815;28;20271;-67
2023/03/26 05:25:14;;;;;;;11.95;2.35;;;10.20;99.90;;;;;;5052851;28;20056;-68
2023/03/26 05:27:39;;;;;;;11.32;2.03;;;10.10;99.90;;;;;;5053290;28;20021;-68
2023/03/26 05:30:06;;;;;;;11.97;2.60;;;10.10;99.90;;;;;;5052842;28;20036;-67
2023/03/26 05:32:32;;;;;;;;;;;10.20;99.90;;;;;;5034884;28;20028;-67
2023/03/26 05:34:58;;;;;;;6.80;1.67;;;10.20;99.90;;;;;;5052747;28;19995;-67
2023/03/26 05:37:23;;;;;;;8.67;1.90;;;10.10;99.90;;;;;;5053008;28;20145;-68
2023/03/26 05:39:53;;;;;;;8.73;1.93;;;10.10;99.90;;;;;;5052806;28;20343;-68
2023/03/26 05:42:19;;;;;;;6.75;1.73;;;10.10;99.90;;;;;;5052759;28;20045;-67
2023/03/26 05:44:45;;;;;;;8.60;1.70;;;10.10;99.90;;;;;;5052631;28;20060;-68
2023/03/26 05:47:10;;;;;;;11.40;2.20;;;10.20;99.90;;;;;;5052637;28;20029;-68
2023/03/26 05:49:36;;;;;;;8.47;2.23;;;10.20;99.90;;;;;;5053072;28;20029;-68
2023/03/26 05:52:01;;;;;;;10.10;2.00;;;10.20;99.90;;;;;;5052838;28;20029;-68
2023/03/26 05:54:27;;;;;;;9.43;2.40;;;10.20;99.90;;;;;;5052697;28;20032;-68
2023/03/26 05:56:53;;;;;;;9.07;2.57;;;10.20;99.90;;;;;;5052814;28;20027;-67
2023/03/26 05:59:18;;;;;;;11.67;2.00;;;10.20;99.90;;;;;;5067474;28;20023;-67
2023/03/26 06:01:44;;;;;;;10.80;1.60;;;10.20;99.90;;;;;;5058837;28;20325;-68
2023/03/26 06:04:14;;;;;;;7.77;1.70;;;10.20;99.90;;;;;;5052530;28;20108;-68
2023/03/26 06:06:40;;;;;;;7.43;1.55;;;10.30;99.90;;;;;;5052246;28;20040;-68
2023/03/26 06:09:06;;;;;;;6.63;1.73;;;10.30;99.90;;;;;;5052233;28;20477;-68
2023/03/26 06:11:31;;;;;;;9.00;1.83;;;10.30;99.90;;;;;;5053061;28;20260;-69
2023/03/26 06:13:58;;;;;;;6.70;1.45;;;10.30;99.90;;;;;;5053612;28;20107;-67
2023/03/26 06:16:23;;;;;;;11.75;2.63;;;10.30;99.90;;;;;;5035594;28;20072;-69
2023/03/26 06:18:50;;;;;;;5.83;2.00;;;10.40;99.90;;;;;;5036366;28;20028;-68
2023/03/26 06:21:17;;;;;;;11.13;2.05;;;10.40;99.90;;;;;;5054680;28;20028;-68
2023/03/26 06:23:42;;;;;;;;;;;10.50;99.90;;;;;;5055670;28;20363;-68
2023/03/26 06:26:08;;;;;;;8.95;1.85;;;10.50;99.90;;;;;;5057202;28;19958;-68
2023/03/26 06:28:34;;;;;;;8.93;1.73;;;10.50;99.90;;;;;;5057488;28;20029;-68
2023/03/26 06:31:00;;;;;;;;;;;10.50;99.90;;;;;;5038757;28;20032;-67
2023/03/26 06:33:26;;;;;;;7.78;1.60;;;10.40;99.90;;;;;;5039145;28;20365;-67
2023/03/26 06:35:51;;;;;;;10.25;1.40;;;10.40;99.90;;;;;;5056718;28;20029;-67
2023/03/26 06:38:17;;;;;;;11.77;2.13;;;10.50;99.90;;;;;;5057385;28;20025;-68
2023/03/26 06:40:43;;;;;;;9.73;2.13;;;10.60;99.90;;;;;;5057180;28;20025;-68
2023/03/26 06:43:09;;;;;;;10.68;2.50;;;10.70;99.90;;;;;;5057753;28;20419;-68
2023/03/26 06:45:34;;;;;;;14.82;2.70;;;10.50;99.90;;;;;;5055938;28;20261;-69
2023/03/26 06:48:00;;;;;;;8.60;2.20;;;10.50;99.90;;;;;;5056634;28;20128;-68
2023/03/26 06:50:26;;;;;;;8.17;1.73;;;10.40;99.90;;;;;;5056462;28;20059;-68
2023/03/26 06:52:54;;;;;;;9.55;1.73;;;10.20;99.90;;;;;;5038875;28;20086;-68
2023/03/26 06:55:19;;;;;;;9.45;1.77;;;10.20;99.90;;;;;;5055953;28;20029;-67
2023/03/26 06:57:49;;;;;;;10.45;1.90;;;10.10;99.90;;;;;;5057736;28;20105;-68
2023/03/26 07:00:15;;;;;;;11.95;2.15;;;10.00;99.90;;;;;;5058455;28;20037;-68
2023/03/26 07:02:41;;;;;;;9.55;2.65;;;9.90;99.90;;;;;;5057820;28;20028;-68
2023/03/26 07:05:07;;;;;;;5.90;1.47;;;10.00;99.90;;;;;;5057945;28;20381;-68
2023/03/26 07:07:32;;;;;;;7.38;2.03;;;9.80;99.90;;;;;;5056986;28;20485;-67
2023/03/26 07:09:58;;;;;;;8.50;1.97;;;9.80;99.90;;;;;;5056076;28;20036;-67
2023/03/26 07:12:25;;;;;;;6.77;1.87;;;9.80;99.90;;;;;;5073014;28;20036;-67
2023/03/26 07:14:50;;;;;;;8.98;1.63;;;9.60;99.90;;;;;;5057504;28;20028;-67
2023/03/26 07:17:16;;;;;;;9.77;1.70;;;9.50;99.90;;;;;;5057266;28;20032;-67
2023/03/26 07:19:42;;;;;;;8.83;2.27;;;9.40;99.90;;;;;;5055672;28;20623;-68
2023/03/26 07:22:17;;;;;;;8.33;2.50;;;9.40;99.90;;;;;;5055245;28;20496;-68
2023/03/26 07:24:43;;;;;;;9.52;1.83;;;9.40;99.90;;;;;;5055260;28;20029;-68
2023/03/26 07:27:18;;;;;;;8.18;1.65;;;9.40;99.90;;;;;;5055087;28;20036;-68
2023/03/26 07:29:55;;;;;;;8.82;1.60;;;9.30;99.90;;;;;;5056251;28;20083;-71
2023/03/26 07:32:44;;;;;;;7.47;1.88;;;9.20;99.90;;;;;;5038870;28;20547;-69
2023/03/26 07:35:19;;;;;;;9.60;1.80;;;9.10;99.90;;;;;;5036811;28;20039;-70
2023/03/26 07:38:16;;;;;;;7.15;1.80;;;9.20;99.90;;;;;;5055523;28;20408;-71
2023/03/26 07:40:50;;;;;;;10.10;1.85;;;9.00;99.90;;;;;;5054524;28;20021;-70
2023/03/26 07:43:40;;;;;;;8.68;1.85;;;8.90;99.90;;;;;;5057112;28;20384;-70
2023/03/26 07:46:10;;;;;;;8.57;1.67;;;8.90;99.90;;;;;;5054428;28;20032;-69
2023/03/26 07:48:41;;;;;;;5.68;1.90;;;9.00;99.90;;;;;;5054836;28;20485;-71
2023/03/26 07:51:08;;;;;;;12.55;2.22;;;9.00;99.90;;;;;;5036474;28;20087;-70
2023/03/26 07:53:34;;;;;;;10.55;2.58;;;9.00;99.90;;;;;;5036329;28;20029;-70
2023/03/26 07:56:20;;;;;;;11.63;3.28;;;9.00;99.90;;;;;;5050725;28;20023;-69
2023/03/26 07:59:03;;;;;;;7.82;1.88;;;9.00;99.90;;;;;;5054209;28;20033;-69
2023/03/26 08:01:41;;;;;;;8.82;1.95;;;9.00;99.90;;;;;;5036189;28;20021;-69
2023/03/26 08:04:21;;;;;;;7.55;1.80;;;9.00;99.90;;;;;;5054436;28;20029;-69
2023/03/26 08:07:06;;;;;;;9.02;2.10;;;9.10;99.90;;;;;;5054414;28;20363;-68
2023/03/26 08:09:42;;;;;;;8.57;1.60;;;9.00;99.90;;;;;;5053920;28;20029;-68
2023/03/26 08:12:47;;;;;;;10.32;2.08;;;9.00;99.90;;;;;;5053671;28;20021;-68
2023/03/26 08:15:32;;;;;;;4.85;1.35;;;9.00;99.90;;;;;;5035401;28;20124;-69
2023/03/26 08:18:15;;;;;;;6.85;1.40;;;9.10;99.90;;;;;;5060852;28;20025;-69
2023/03/26 08:20:47;;;;;;;5.13;1.70;;;9.00;99.90;;;;;;5055921;28;20021;-69
2023/03/26 08:23:27;;;;;;;8.35;1.77;;;8.90;99.90;;;;;;5061974;28;20032;-68
2023/03/26 08:26:02;;;;;;;6.25;1.90;;;8.90;99.90;;;;;;5054486;28;20025;-70
2023/03/26 08:28:49;;;;;;;7.50;1.75;;;8.90;99.90;;;;;;5068589;28;20029;-70
2023/03/26 08:31:18;;;;;;;11.13;2.13;;;8.80;99.90;;;;;;5071269;28;20021;-70
2023/03/26 08:33:44;;;;;;;7.05;1.90;;;8.80;99.90;;;;;;5050643;28;20036;-68
2023/03/26 08:36:09;;;;;;;9.63;3.10;;;9.00;99.90;;;;;;5039734;28;20024;-71
2023/03/26 08:38:35;;;;;;;11.47;2.97;;;9.00;99.90;;;;;;5057873;28;20036;-71
2023/03/26 08:41:10;;;;;;;6.37;1.50;;;9.00;99.90;;;;;;5064172;28;20625;-69
2023/03/26 08:43:48;;;;;;;5.10;1.60;;;9.10;99.90;;;;;;5036649;28;20720;-68
2023/03/26 08:46:14;;;;;;;10.02;2.03;;;9.10;99.90;;;;;;5067133;28;20496;-68
2023/03/26 08:48:51;;;;;;;10.50;2.17;;;9.40;99.90;;;;;;5061932;28;20021;-70
2023/03/26 08:51:29;;;;;;;10.20;2.10;;;9.70;99.90;;;;;;5035237;28;20021;-68
2023/03/26 08:54:19;;;;;;;10.35;1.98;;;9.80;99.90;;;;;;5065326;28;20021;-67
2023/03/26 08:57:11;;;;;;;7.00;1.98;;;9.70;99.90;;;;;;5053663;28;20119;-72
2023/03/26 09:00:04;;;;;;;12.15;2.22;;;10.00;99.90;;;;;;5037534;28;20048;-72
2023/03/26 09:02:45;;;;;;;12.15;2.63;;;10.20;99.90;;;;;;5038492;28;20025;-72
2023/03/26 09:05:35;;;;;;;8.40;2.15;;;10.40;99.90;;;;;;5062157;28;20025;-72
2023/03/26 09:08:31;;;;;;;7.13;1.73;;;10.40;99.90;;;;;;5035235;28;20108;-72
2023/03/26 09:11:26;;;;;;;8.20;2.03;;;10.70;99.90;;;;;;5035436;28;20469;-71
2023/03/26 09:14:26;;;;;;;7.40;1.88;;;10.80;99.90;;;;;;5035094;28;20370;-71
2023/03/26 09:17:45;;;;;;;7.32;1.80;;;10.90;99.90;;;;;;5040268;28;20384;-71
2023/03/26 09:20:44;;;;;;;7.53;2.53;;;11.00;99.90;;;;;;5069753;28;20033;-72
2023/03/26 09:23:15;;;;;;;8.38;2.03;;;11.10;99.90;;;;;;5035335;28;20443;-72
2023/03/26 09:26:18;;;;;;;5.05;1.65;;;11.30;99.90;;;;;;5053526;28;20075;-70
2023/03/26 09:29:05;;;;;;;6.90;2.25;;;11.70;99.90;;;;;;5058081;28;20090;-70
2023/03/26 09:31:50;;;;;;;6.00;2.25;;;12.20;99.90;;;;;;5049903;28;20036;-70
2023/03/26 09:34:35;;;;;;;8.50;2.70;;;12.70;99.90;;;;;;5035127;28;20033;-71
2023/03/26 09:37:32;;;;;;;5.70;2.17;;;13.10;99.90;;;;;;5052734;28;20025;-70
2023/03/26 09:40:22;;;;;;;7.60;1.80;;;13.70;99.90;;;;;;5039040;28;20409;-70
2023/03/26 09:42:59;;;;;;;7.80;3.10;;;14.50;99.90;;;;;;5054742;28;20067;-69
2023/03/26 09:46:04;;;;;;;9.75;3.55;;;14.30;99.90;;;;;;5065842;28;20023;-70
2023/03/26 09:48:48;;;;;;;8.68;3.70;;;13.60;99.90;;;;;;5034902;28;20017;-67
2023/03/26 09:51:37;;;;;;;10.40;3.40;;;13.00;99.90;;;;;;5052652;28;20033;-69
2023/03/26 09:54:16;;;;;;;7.95;2.20;;;12.60;99.90;;;;;;5057723;28;20057;-68
2023/03/26 09:57:03;;;;;;;9.80;2.47;;;12.30;99.90;;;;;;5065134;28;20022;-68
2023/03/26 10:00:00;;;;;;;7.15;2.50;;;12.20;99.90;;;;;;5037514;28;20063;-69
2023/03/26 10:02:44;;;;;;;5.35;2.03;;;12.20;99.90;;;;;;5068229;28;20032;-68
2023/03/26 10:05:19;;;;;;;8.73;1.80;;;13.00;99.90;;;;;;5058450;28;20071;-70
2023/03/26 10:08:02;;;;;;;5.00;1.80;;;15.20;99.90;;;;;;5076549;28;20016;-70
2023/03/26 10:10:30;;;;;;;3.28;1.40;;;17.10;99.90;;;;;;5078015;28;20020;-72
2023/03/26 10:13:18;;;;;;;3.78;1.30;;;19.00;99.90;;;;;;5049471;28;20446;-71
2023/03/26 10:15:52;;;;;;;6.50;1.50;;;21.10;99.00;;;;;;5056586;28;20032;-70
2023/03/26 10:18:36;;;;;;;2.60;0.90;;;22.20;93.10;;;;;;5057070;28;20024;-69
2023/03/26 10:21:17;;;;;;;3.53;1.20;;;22.30;89.00;;;;;;5051171;28;20021;-70
2023/03/26 10:24:03;;;;;;;4.93;1.23;;;23.20;86.60;;;;;;5037911;28;20025;-71
2023/03/26 10:26:31;;;;;;;2.50;0.90;;;23.70;85.60;;;;;;5055987;28;20021;-72
2023/03/26 10:29:14;;;;;;;3.08;0.95;;;24.20;83.00;;;;;;5039601;28;20025;-70
2023/03/26 10:32:08;;;;;;;2.13;0.93;;;23.20;79.00;;;;;;5055252;28;20346;-70
2023/03/26 10:34:40;;;;;;;3.60;1.10;;;21.80;81.00;;;;;;5073549;28;20025;-69
2023/03/26 10:37:18;;;;;;;2.45;0.98;;;21.00;82.30;;;;;;5039220;28;20025;-70
2023/03/26 10:40:05;;;;;;;2.88;1.00;;;22.30;79.90;;;;;;5039175;28;20366;-70
2023/03/26 10:42:31;;;;;;;;;;;22.70;76.20;;;;;;5057443;28;20028;-70
2023/03/26 10:45:08;;;;;;;2.17;0.60;;;23.10;74.70;;;;;;5056654;28;19951;-68
2023/03/26 10:47:54;;;;;;;2.53;0.80;;;23.40;73.00;;;;;;5055735;28;20108;-70
2023/03/26 10:50:45;;;;;;;2.75;1.05;;;23.50;72.50;;;;;;5038034;28;20025;-70
2023/03/26 10:53:30;;;;;;;2.72;0.90;;;23.70;71.20;;;;;;5055525;28;20036;-70
2023/03/26 10:56:27;;;;;;;2.60;0.52;;;24.10;72.20;;;;;;5037804;28;20095;-69
2023/03/26 10:58:55;;;;;;;2.25;0.82;;;23.90;67.50;;;;;;5055537;28;20481;-71
2023/03/26 11:01:45;;;;;;;2.08;0.77;;;23.50;67.20;;;;;;5037583;28;20116;-70
2023/03/26 11:04:13;;;;;;;17.85;2.38;;;23.50;67.40;;;;;;5037886;28;20342;-70
2023/03/26 11:07:02;;;;;;;3.60;0.90;;;23.50;66.90;;;;;;5037309;28;20029;-70
2023/03/26 11:09:39;;;;;;;1.77;0.80;;;23.30;65.70;;;;;;5045150;28;20025;-71
2023/03/26 11:12:31;;;;;;;3.85;0.80;;;23.30;66.20;;;;;;5072719;28;20111;-70
2023/03/26 11:15:12;;;;;;;2.75;0.70;;;21.40;67.50;;;;;;5058196;28;20072;-72
2023/03/26 11:17:41;;;;;;;3.75;1.45;;;19.10;71.30;;;;;;5053819;28;20055;-72
2023/03/26 11:20:42;;;;;;;2.25;0.50;;;17.70;74.40;;;;;;5037263;28;20071;-72
2023/03/26 11:23:34;;;;;;;3.65;0.88;;;16.90;75.10;;;;;;5004632;28;20051;-71
2023/03/26 11:26:40;;;;;;;2.67;0.70;;;16.20;78.90;;;;;;5055835;28;20087;-72
2023/03/26 11:29:29;;;;;;;5.10;1.08;;;15.80;81.10;;;;;;5056174;28;20044;-70
2023/03/26 11:32:05;;;;;;;4.18;1.30;;;15.70;82.60;;;;;;5055221;28;20021;-70
2023/03/26 11:34:47;;;;;;;3.47;0.75;;;15.60;82.50;;;;;;5037227;28;20029;-70
2023/03/26 11:37:30;;;;;;;4.53;0.73;;;15.60;82.00;;;;;;5055571;28;20028;-70
2023/03/26 11:39:58;;;;;;;4.70;0.93;;;15.60;82.70;;;;;;5055410;28;20083;-69
2023/03/26 11:42:24;;;;;;;5.28;1.05;;;15.60;84.00;;;;;;5055097;28;20021;-70
2023/03/26 11:44:53;;;;;;;;;;;15.80;83.40;;;;;;5053199;28;20042;-70
2023/03/26 11:47:23;;;;;;;2.17;0.70;;;15.80;84.10;;;;;;5075114;28;19904;-70
2023/03/26 11:49:54;;;;;;;2.85;1.23;;;15.70;82.40;;;;;;5073983;28;20078;-70
2023/03/26 11:52:20;;;;;;;3.65;0.80;;;15.60;83.40;;;;;;5075180;28;20104;-69
2023/03/26 11:54:49;;;;;;;;;;;15.50;83.00;;;;;;5068497;28;20116;-71
2023/03/26 11:57:24;;;;;;;4.20;1.13;;;15.40;83.20;;;;;;5058246;28;19983;-71
2023/03/26 11:59:56;;;;;;;5.13;1.02;;;15.30;84.20;;;;;;5040449;28;20052;-72
2023/03/26 12:02:27;;;;;;;6.50;1.33;;;15.20;83.50;;;;;;5055185;28;20033;-71
2023/03/26 12:05:25;;;;;;;4.18;1.17;;;15.20;85.70;;;;;;5059812;28;20029;-72
2023/03/26 12:07:55;;;;;;;6.40;1.45;;;15.30;84.20;;;;;;5063028;28;20056;-71
2023/03/26 12:10:28;;;;;;;5.32;0.90;;;15.30;84.60;;;;;;5078163;28;20082;-71
2023/03/26 12:12:57;;;;;;;3.70;1.33;;;15.30;84.60;;;;;;5076235;28;20020;-73
2023/03/26 12:15:24;;;;;;;4.72;1.25;;;15.40;85.50;;;;;;5075147;28;20127;-70
2023/03/26 12:17:54;;;;;;;13.07;1.65;;;15.50;85.30;;;;;;5081503;28;20036;-69
2023/03/26 12:20:26;;;;;;;9.00;1.55;;;15.50;85.10;;;;;;5060257;28;20017;-70
2023/03/26 12:22:58;;;;;;;4.75;1.02;;;15.50;83.70;;;;;;5076614;28;20059;-67
2023/03/26 12:25:35;;;;;;;5.45;1.23;;;15.50;82.60;;;;;;5062486;28;20025;-69
2023/03/26 12:28:01;;;;;;;3.65;0.85;;;15.60;82.80;;;;;;5084499;28;20408;-70
2023/03/26 12:30:32;;;;;;;4.32;1.10;;;15.80;82.50;;;;;;5070995;28;20013;-70
2023/03/26 12:33:03;;;;;;;3.25;0.88;;;15.80;81.80;;;;;;5058950;28;20028;-69
2023/03/26 12:35:34;;;;;;;5.05;0.77;;;15.90;81.70;;;;;;5059321;28;20021;-69
2023/03/26 12:38:23;;;;;;;4.82;1.25;;;15.90;80.20;;;;;;5059241;28;20021;-70
2023/03/26 12:41:12;;;;;;;7.70;1.10;;;15.80;80.80;;;;;;5053447;28;20108;-69
2023/03/26 12:43:48;;;;;;;6.43;1.10;;;15.90;80.50;;;;;;5039311;28;20045;-69
2023/03/26 12:46:26;;;;;;;4.85;1.25;;;15.90;80.60;;;;;;5066896;28;20028;-69
2023/03/26 12:48:53;;;;;;;4.35;0.93;;;16.10;80.60;;;;;;5077726;28;20429;-69
2023/03/26 12:51:25;;;;;;;4.00;0.95;;;16.30;80.80;;;;;;5078143;28;20028;-68
2023/03/26 12:54:15;;;;;;;3.90;1.02;;;16.30;79.50;;;;;;5077331;28;20120;-71
2023/03/26 12:57:19;;;;;;;4.50;1.17;;;16.40;80.40;;;;;;5068183;28;20051;-71
2023/03/26 13:00:08;;;;;;;4.43;0.90;;;16.50;79.60;;;;;;5059017;28;20033;-70
2023/03/26 13:03:01;;;;;;;3.90;1.13;;;16.40;78.10;;;;;;5070035;28;20017;-68
2023/03/26 13:05:50;;;;;;;3.30;1.25;;;16.30;78.60;;;;;;5045262;28;20489;-69
2023/03/26 13:08:43;;;;;;;4.20;0.90;;;16.30;79.30;;;;;;5049375;28;20036;-70
2023/03/26 13:11:39;;;;;;;3.75;0.90;;;16.40;80.60;;;;;;5061025;28;20028;-68
2023/03/26 13:14:22;;;;;;;5.47;0.98;;;16.40;79.60;;;;;;5060696;28;20068;-69
2023/03/26 13:17:28;;;;;;;4.28;0.80;;;16.10;80.50;;;;;;5058950;28;20076;-69
2023/03/26 13:20:21;;;;;;;2.10;1.00;;;16.30;81.40;;;;;;5054230;28;20109;-67
2023/03/26 13:23:16;;;;;;;5.20;1.50;;;16.60;78.60;;;;;;5037814;28;20035;-69
2023/03/26 13:26:10;;;;;;;3.10;1.05;;;16.60;77.10;;;;;;5038492;28;20474;-69